メインページ
METAR-TAF:

METAR-TAF

空港 :

アール・マクトゥーム国際空港

ドバイ, アラブ首長国連邦

緯度: 24-53-49N, 経度: 55-09-40E, 海抜: 35m

現時点の気象観測

当レポートは1時間11分前の22:00(UTC)に作成
の風 4kt
気温 19°C
湿度 78%
気圧 1021 hPa
視程10km以上
1,500メートル以下は雲なし、積乱雲なし

METAR: OMDW 152200Z 35004KT CAVOK 19/15 Q1021 NOSIG

時間: 03:11 (23:11 UTC)

予報

当レポートは6時間11分前の17:00(UTC)に作成
予報は15日の 18時(UTC)から 17日の 00時(UTC)まで有効
東/北東の風 5kt
視程10km以上
1,500メートル以下は雲なし、積乱雲なし
16日の 10時(UTC)から 16日の 12時(UTC)まで徐々に
の風 12kt
16日の 15時(UTC)から 16日の 17時(UTC)まで徐々に
東/北東の風 5kt

TAF: OMDW 151700Z 1518/1700 07005KT CAVOK BECMG 1610/1612 35012KT BECMG 1615/1617 07005KT

4,000以上の空港の気象観測と天気予報(METAR報とTAF報)

利用可能な観測所は地図上に黄色い丸と赤い丸で示す。

丸の上にカーソルを重ねると観測所名を参照できる。

次にクリックすると気象観測と天気予報を参照できる。

マップの切り替え:黒色「×」印の緑ボタンをクリックして拡大、「-」印の緑ボタンをクリックして縮小、緑色の三角印をクリックして隣りの地図に切り替え


METAR-TAF: